createdAt,value
2018-05-09T00:02:27.457Z,17.18
2018-05-09T00:05:29.934Z,17.25
2018-05-09T00:08:32.461Z,17.09
2018-05-09T00:11:35.017Z,17.11
2018-05-09T00:14:37.572Z,17.21
2018-05-09T00:17:40.028Z,17.21
2018-05-09T00:20:42.512Z,17.10
2018-05-09T00:23:44.972Z,17.24
2018-05-09T00:26:47.473Z,17.30
2018-05-09T00:29:49.900Z,17.38
2018-05-09T00:32:52.434Z,17.47
2018-05-09T00:35:54.916Z,17.52
2018-05-09T00:38:57.464Z,17.45
2018-05-09T00:41:59.981Z,17.34
2018-05-09T00:45:02.481Z,17.39
2018-05-09T00:48:05.046Z,17.38
2018-05-09T00:51:07.524Z,17.26
2018-05-09T00:54:21.947Z,17.31
2018-05-09T00:57:24.476Z,17.26
2018-05-09T01:00:26.954Z,17.23
2018-05-09T01:03:29.388Z,17.21
2018-05-09T01:06:31.853Z,17.21
2018-05-09T01:09:34.335Z,17.18
2018-05-09T01:12:36.835Z,17.05
2018-05-09T01:15:39.349Z,16.90
2018-05-09T01:18:41.812Z,16.89
2018-05-09T01:21:44.269Z,16.79
2018-05-09T01:24:46.719Z,16.62
2018-05-09T01:27:49.149Z,16.65
2018-05-09T01:30:51.625Z,16.67
2018-05-09T01:33:54.134Z,16.73
2018-05-09T01:36:56.559Z,17.05
2018-05-09T01:39:59.055Z,17.10
2018-05-09T01:43:01.523Z,17.15
2018-05-09T01:46:03.995Z,17.11
2018-05-09T01:49:06.439Z,17.13
2018-05-09T01:52:08.913Z,17.07
2018-05-09T01:55:11.458Z,16.81
2018-05-09T01:58:14.020Z,16.47
2018-05-09T02:01:16.504Z,16.66
2018-05-09T02:04:19.046Z,16.56
2018-05-09T02:07:21.508Z,16.49
2018-05-09T02:10:23.947Z,16.54
2018-05-09T02:13:26.424Z,16.55
2018-05-09T02:16:28.913Z,16.43
2018-05-09T02:19:31.348Z,16.31
2018-05-09T02:22:33.852Z,16.18
2018-05-09T02:25:36.349Z,16.24
2018-05-09T02:28:38.863Z,16.27
2018-05-09T02:31:41.335Z,16.29
2018-05-09T02:34:43.774Z,16.28
2018-05-09T02:37:46.234Z,16.31
2018-05-09T02:40:48.654Z,16.39
2018-05-09T02:43:51.136Z,16.76
2018-05-09T02:46:53.576Z,16.76
2018-05-09T02:49:56.088Z,16.58
2018-05-09T02:52:58.556Z,16.63
2018-05-09T02:56:00.998Z,16.73
2018-05-09T02:59:03.540Z,16.65
2018-05-09T03:02:06.095Z,16.69
2018-05-09T03:05:08.523Z,16.85
2018-05-09T03:08:10.992Z,16.82
2018-05-09T03:11:13.466Z,16.74
2018-05-09T03:14:15.945Z,16.88
2018-05-09T03:17:18.350Z,16.87
2018-05-09T03:20:20.830Z,16.87
2018-05-09T03:23:23.748Z,16.89
2018-05-09T03:26:26.295Z,16.79
2018-05-09T03:29:28.745Z,16.78
2018-05-09T03:32:31.213Z,16.86
2018-05-09T03:35:33.674Z,16.93
2018-05-09T03:38:36.233Z,17.07
2018-05-09T03:41:38.750Z,17.06
2018-05-09T03:44:41.248Z,17.14
2018-05-09T03:47:43.694Z,17.14
2018-05-09T03:50:46.161Z,17.18
2018-05-09T03:53:48.619Z,17.35
2018-05-09T03:56:51.115Z,17.59
2018-05-09T03:59:53.581Z,17.78
2018-05-09T04:03:08.000Z,18.04
2018-05-09T04:06:22.274Z,18.18
2018-05-09T04:13:04.664Z,19.08
2018-05-09T04:16:07.035Z,19.38
2018-05-09T04:19:09.549Z,19.83
2018-05-09T04:22:11.995Z,20.09
2018-05-09T04:25:14.550Z,20.43
2018-05-09T04:28:17.216Z,20.96
2018-05-09T04:31:19.632Z,21.25
2018-05-09T04:34:22.154Z,21.35
2018-05-09T04:37:24.597Z,21.80
2018-05-09T04:40:27.096Z,22.20
2018-05-09T04:43:29.722Z,22.35
2018-05-09T04:46:32.280Z,22.26
2018-05-09T04:49:34.724Z,21.81
2018-05-09T04:52:37.205Z,21.62
2018-05-09T04:55:39.805Z,21.93
2018-05-09T04:58:42.218Z,21.61
2018-05-09T05:01:44.653Z,22.05
2018-05-09T05:04:47.163Z,22.13
2018-05-09T05:07:49.598Z,23.00
2018-05-09T05:10:52.058Z,22.96
2018-05-09T05:13:54.555Z,23.81
2018-05-09T05:16:56.994Z,23.76
2018-05-09T05:19:59.526Z,23.70
2018-05-09T05:23:02.216Z,23.47
2018-05-09T05:26:04.643Z,22.95
2018-05-09T05:29:07.104Z,22.99
2018-05-09T05:32:09.711Z,23.51
2018-05-09T05:35:12.256Z,22.85
2018-05-09T05:38:14.824Z,23.28
2018-05-09T05:41:17.254Z,23.46
2018-05-09T05:44:19.753Z,23.71
2018-05-09T05:47:22.199Z,23.94
2018-05-09T05:50:24.699Z,24.64
2018-05-09T05:53:27.133Z,24.68
2018-05-09T05:56:29.691Z,24.28
2018-05-09T05:59:32.147Z,24.39
2018-05-09T06:02:34.716Z,24.18
2018-05-09T06:05:37.272Z,23.99
2018-05-09T06:08:39.769Z,23.92
2018-05-09T06:11:42.222Z,23.74
2018-05-09T06:14:44.666Z,23.50
2018-05-09T06:17:47.133Z,23.27
2018-05-09T06:20:49.635Z,23.82
2018-05-09T06:23:52.192Z,24.14
2018-05-09T06:26:54.662Z,23.90
2018-05-09T06:29:57.166Z,24.23
2018-05-09T06:32:59.622Z,24.31
2018-05-09T06:36:02.092Z,24.31
2018-05-09T06:39:05.455Z,24.27
2018-05-09T06:42:07.956Z,24.24
2018-05-09T06:45:10.432Z,24.58
2018-05-09T06:48:12.886Z,23.80
2018-05-09T06:51:15.367Z,23.36
2018-05-09T06:54:17.878Z,22.86
2018-05-09T06:57:20.342Z,22.82
2018-05-09T07:00:22.817Z,22.75
2018-05-09T07:03:25.287Z,22.61
2018-05-09T07:06:27.942Z,22.80
2018-05-09T07:09:30.276Z,22.66
2018-05-09T07:12:32.864Z,22.73
2018-05-09T07:15:35.302Z,22.99
2018-05-09T07:18:37.869Z,22.94
2018-05-09T07:21:40.422Z,22.99
2018-05-09T07:24:42.991Z,23.03
2018-05-09T07:27:45.463Z,22.81
2018-05-09T07:30:47.918Z,22.73
2018-05-09T07:33:50.468Z,22.82
2018-05-09T07:36:52.931Z,23.10
2018-05-09T07:39:55.402Z,23.06
2018-05-09T07:42:57.955Z,23.38
2018-05-09T07:46:00.357Z,23.34
2018-05-09T07:49:02.986Z,23.43
2018-05-09T07:52:05.446Z,23.61
2018-05-09T07:55:07.956Z,23.61
2018-05-09T07:58:10.387Z,23.67
2018-05-09T08:01:12.877Z,23.62
2018-05-09T08:04:15.331Z,23.60
2018-05-09T08:07:17.857Z,23.88
2018-05-09T08:10:20.412Z,23.85
2018-05-09T08:13:22.972Z,24.04
2018-05-09T08:16:25.489Z,24.11
2018-05-09T08:19:27.954Z,24.12
2018-05-09T08:22:30.408Z,23.87
2018-05-09T08:25:32.891Z,23.73
2018-05-09T08:28:35.494Z,23.84
2018-05-09T08:31:37.933Z,24.06
2018-05-09T08:34:40.437Z,23.97
2018-05-09T08:37:42.959Z,24.12
2018-05-09T08:40:45.387Z,24.05
2018-05-09T08:43:47.920Z,24.00
2018-05-09T08:46:50.369Z,24.05
2018-05-09T08:49:52.827Z,24.21
2018-05-09T08:52:55.242Z,24.16
2018-05-09T08:55:57.727Z,24.26
2018-05-09T08:59:00.187Z,24.32
2018-05-09T09:02:02.643Z,24.61
2018-05-09T09:05:05.082Z,24.89
2018-05-09T09:08:07.637Z,25.05
2018-05-09T09:11:10.138Z,25.01
2018-05-09T09:14:12.693Z,24.86
2018-05-09T09:17:15.162Z,24.99
2018-05-09T09:20:17.598Z,25.02
2018-05-09T09:23:20.064Z,24.94
2018-05-09T09:26:22.644Z,25.12
2018-05-09T09:29:25.203Z,25.02
2018-05-09T09:32:27.660Z,25.18
2018-05-09T09:35:30.195Z,25.22
2018-05-09T09:38:32.767Z,25.19
2018-05-09T09:41:35.353Z,25.28
2018-05-09T09:44:37.704Z,25.38
2018-05-09T09:47:40.265Z,25.39
2018-05-09T09:50:42.768Z,25.36
2018-05-09T09:53:45.292Z,25.47
2018-05-09T09:56:47.743Z,25.47
2018-05-09T09:59:50.220Z,25.57
2018-05-09T10:02:52.708Z,25.57
2018-05-09T10:05:55.169Z,25.49
2018-05-09T10:08:57.698Z,25.50
2018-05-09T10:12:00.163Z,25.51
2018-05-09T10:15:02.616Z,25.69
2018-05-09T10:18:05.180Z,25.77
2018-05-09T10:21:07.606Z,25.67
2018-05-09T10:24:10.074Z,25.75
2018-05-09T10:27:12.661Z,25.76
2018-05-09T10:30:15.162Z,25.86
2018-05-09T10:33:17.689Z,26.02
2018-05-09T10:36:20.123Z,26.02
2018-05-09T10:39:22.714Z,25.82
2018-05-09T10:42:25.276Z,25.99
2018-05-09T10:45:27.753Z,25.90
2018-05-09T10:48:30.184Z,25.87
2018-05-09T10:51:32.715Z,25.90
2018-05-09T10:54:35.166Z,25.96
2018-05-09T10:57:37.715Z,26.04
2018-05-09T11:00:40.238Z,26.19
2018-05-09T11:03:43.706Z,26.15
2018-05-09T11:06:46.110Z,26.10
2018-05-09T11:09:48.561Z,26.25
2018-05-09T11:12:51.054Z,26.22
2018-05-09T11:15:53.518Z,26.09
2018-05-09T11:18:55.980Z,26.07
2018-05-09T11:21:58.469Z,26.08
2018-05-09T11:25:00.995Z,26.05
2018-05-09T11:28:03.465Z,26.16
2018-05-09T11:31:05.943Z,26.21
2018-05-09T11:34:08.437Z,26.25
2018-05-09T11:37:10.894Z,26.32
2018-05-09T11:40:13.438Z,26.36
2018-05-09T11:43:15.888Z,26.42
2018-05-09T11:46:18.346Z,26.71
2018-05-09T11:49:20.920Z,26.85
2018-05-09T11:52:23.421Z,26.58
2018-05-09T11:55:25.948Z,26.57
2018-05-09T11:58:28.431Z,26.80
2018-05-09T12:01:30.892Z,27.15
2018-05-09T12:04:33.365Z,27.30
2018-05-09T12:07:35.869Z,27.13
2018-05-09T12:10:38.365Z,27.04
2018-05-09T12:13:40.934Z,27.13
2018-05-09T12:16:43.415Z,27.16
2018-05-09T12:19:45.899Z,27.01
2018-05-09T12:22:48.337Z,26.80
2018-05-09T12:25:50.838Z,26.98
2018-05-09T12:28:53.359Z,26.97
2018-05-09T12:31:55.840Z,26.68
2018-05-09T12:34:58.357Z,26.77
2018-05-09T12:38:01.008Z,26.68
2018-05-09T12:41:03.461Z,26.90
2018-05-09T12:44:05.926Z,26.98
2018-05-09T12:47:08.360Z,26.73
2018-05-09T12:50:10.970Z,26.82
2018-05-09T12:53:13.455Z,26.73
2018-05-09T12:56:15.901Z,26.87
2018-05-09T12:59:18.879Z,26.57
2018-05-09T13:02:21.352Z,26.40
2018-05-09T13:05:23.839Z,26.54
2018-05-09T13:08:26.387Z,26.24
2018-05-09T13:11:28.905Z,26.13
2018-05-09T13:14:31.421Z,26.38
2018-05-09T13:17:33.902Z,26.54
2018-05-09T13:20:36.405Z,26.32
2018-05-09T13:23:38.852Z,26.42
2018-05-09T13:26:41.416Z,26.35
2018-05-09T13:29:43.911Z,26.60
2018-05-09T13:32:46.416Z,26.69
2018-05-09T13:35:48.999Z,26.63
2018-05-09T13:38:51.472Z,26.62
2018-05-09T13:41:54.031Z,26.60
2018-05-09T13:44:56.516Z,26.63
2018-05-09T13:47:59.059Z,26.36
2018-05-09T13:51:01.525Z,26.24
2018-05-09T13:54:04.069Z,26.66
2018-05-09T13:57:06.590Z,26.57
2018-05-09T14:00:09.103Z,26.51
2018-05-09T14:03:11.528Z,26.23
2018-05-09T14:06:14.097Z,26.22
2018-05-09T14:09:16.571Z,26.12
2018-05-09T14:12:19.072Z,25.78
2018-05-09T14:15:21.549Z,25.45
2018-05-09T14:18:24.001Z,25.25
2018-05-09T14:21:26.484Z,25.63
2018-05-09T14:24:28.972Z,25.65
2018-05-09T14:27:31.418Z,25.78
2018-05-09T14:30:33.956Z,25.81
2018-05-09T14:33:36.492Z,25.87
2018-05-09T14:36:38.983Z,25.82
2018-05-09T14:39:41.491Z,25.80
2018-05-09T14:42:44.056Z,25.89
2018-05-09T14:45:46.521Z,25.65
2018-05-09T14:48:49.077Z,25.64
2018-05-09T14:51:51.651Z,25.53
2018-05-09T14:54:54.332Z,25.79
2018-05-09T14:57:56.808Z,25.57
2018-05-09T15:00:59.312Z,25.65
2018-05-09T15:04:01.776Z,25.74
2018-05-09T15:07:04.351Z,25.63
2018-05-09T15:10:06.800Z,25.62
2018-05-09T15:13:09.312Z,25.64
2018-05-09T15:16:11.938Z,25.63
2018-05-09T15:19:14.439Z,25.66
2018-05-09T15:22:16.938Z,25.57
2018-05-09T15:25:19.583Z,25.44
2018-05-09T15:28:22.092Z,25.64
2018-05-09T15:31:24.567Z,25.51
2018-05-09T15:34:27.103Z,25.46
2018-05-09T15:37:29.607Z,25.50
2018-05-09T15:40:32.128Z,25.46
2018-05-09T15:43:34.605Z,25.38
2018-05-09T15:46:37.103Z,25.44
2018-05-09T15:49:39.596Z,25.44
2018-05-09T15:52:42.182Z,25.50
2018-05-09T15:55:44.638Z,25.38
2018-05-09T15:58:47.191Z,25.36
2018-05-09T16:01:49.681Z,25.37
2018-05-09T16:04:52.197Z,25.15
2018-05-09T16:07:54.648Z,25.31
2018-05-09T16:10:57.146Z,25.31
2018-05-09T16:13:59.584Z,25.56
2018-05-09T16:17:02.093Z,25.44
2018-05-09T16:20:04.688Z,25.32
2018-05-09T16:23:07.187Z,25.33
2018-05-09T16:26:09.687Z,25.15
2018-05-09T16:29:12.132Z,25.22
2018-05-09T16:32:14.631Z,25.13
2018-05-09T16:35:17.159Z,25.08
2018-05-09T16:38:19.657Z,25.18
2018-05-09T16:41:22.159Z,25.23
2018-05-09T16:44:24.605Z,25.07
2018-05-09T16:47:27.120Z,25.07
2018-05-09T16:50:29.684Z,24.91
2018-05-09T16:53:32.202Z,24.95
2018-05-09T16:56:34.668Z,24.86
2018-05-09T16:59:37.151Z,24.79
2018-05-09T17:02:39.608Z,24.92
2018-05-09T17:05:42.107Z,25.04
2018-05-09T17:08:44.571Z,25.31
2018-05-09T17:11:47.174Z,25.24
2018-05-09T17:14:49.734Z,26.15
2018-05-09T17:17:52.228Z,26.75
2018-05-09T17:20:54.713Z,27.59
2018-05-09T17:23:57.193Z,28.21
2018-05-09T17:26:59.654Z,28.45
2018-05-09T17:30:02.140Z,28.10
2018-05-09T17:33:04.659Z,28.02
2018-05-09T17:36:07.089Z,28.01
2018-05-09T17:39:09.620Z,27.93
2018-05-09T17:42:12.116Z,27.97
2018-05-09T17:45:14.603Z,28.05
2018-05-09T17:48:17.136Z,27.96
2018-05-09T17:51:19.672Z,27.79
2018-05-09T17:54:22.163Z,27.39
2018-05-09T17:57:24.620Z,27.17
2018-05-09T18:00:27.134Z,26.43
2018-05-09T18:03:29.619Z,26.38
2018-05-09T18:06:32.172Z,25.86
2018-05-09T18:09:34.635Z,25.09
2018-05-09T18:12:37.200Z,24.70
2018-05-09T18:15:39.723Z,24.32
2018-05-09T18:18:42.259Z,23.80
2018-05-09T18:21:44.837Z,23.76
2018-05-09T18:24:47.271Z,23.38
2018-05-09T18:27:49.731Z,22.96
2018-05-09T18:30:52.234Z,22.73
2018-05-09T18:33:54.729Z,22.61
2018-05-09T18:36:57.212Z,22.46
2018-05-09T18:39:59.751Z,22.29
2018-05-09T18:43:02.201Z,22.13
2018-05-09T18:46:04.708Z,22.22
2018-05-09T18:49:07.194Z,22.08
2018-05-09T18:52:09.724Z,22.16
2018-05-09T18:55:12.225Z,21.96
2018-05-09T18:58:14.729Z,21.81
2018-05-09T19:01:17.229Z,21.84
2018-05-09T19:04:19.741Z,21.75
2018-05-09T19:07:22.320Z,21.64
2018-05-09T19:10:24.820Z,21.63
2018-05-09T19:13:27.275Z,21.60
2018-05-09T19:16:29.804Z,21.54
2018-05-09T19:19:32.266Z,21.47
2018-05-09T19:22:34.771Z,21.43
2018-05-09T19:25:37.383Z,21.34
2018-05-09T19:28:39.932Z,21.24
2018-05-09T19:31:43.482Z,21.24
2018-05-09T19:34:46.092Z,21.18
2018-05-09T19:37:48.595Z,21.32
2018-05-09T19:40:51.153Z,21.35
2018-05-09T19:43:53.675Z,21.38
2018-05-09T19:46:56.242Z,21.38
2018-05-09T19:49:58.822Z,21.44
2018-05-09T19:53:01.284Z,21.47
2018-05-09T19:56:03.776Z,21.46
2018-05-09T19:59:06.249Z,21.53
2018-05-09T20:02:08.801Z,21.58
2018-05-09T20:05:11.284Z,21.62
2018-05-09T20:08:13.789Z,21.59
2018-05-09T20:11:16.301Z,21.62
2018-05-09T20:14:18.830Z,21.67
2018-05-09T20:17:21.370Z,21.61
2018-05-09T20:20:23.860Z,21.54
2018-05-09T20:23:26.334Z,21.53
2018-05-09T20:26:28.856Z,21.46
2018-05-09T20:29:31.386Z,21.33
2018-05-09T20:32:39.861Z,21.27
2018-05-09T20:35:42.359Z,21.27
2018-05-09T20:38:44.811Z,21.25
2018-05-09T20:41:47.382Z,21.17
2018-05-09T20:44:49.862Z,21.18
2018-05-09T20:47:52.452Z,21.09
2018-05-09T20:50:54.973Z,21.21
2018-05-09T20:53:57.635Z,21.10
2018-05-09T20:57:00.107Z,21.05
2018-05-09T21:00:02.585Z,20.90
2018-05-09T21:03:05.060Z,20.79
2018-05-09T21:06:07.565Z,20.70
2018-05-09T21:09:10.172Z,20.49
2018-05-09T21:12:12.595Z,20.44
2018-05-09T21:15:15.172Z,20.28
2018-05-09T21:18:17.694Z,20.20
2018-05-09T21:21:20.167Z,20.17
2018-05-09T21:24:22.760Z,20.02
2018-05-09T21:27:25.191Z,19.98
2018-05-09T21:30:27.729Z,19.86
2018-05-09T21:33:30.332Z,19.81
2018-05-09T21:36:32.839Z,19.81
2018-05-09T21:39:35.327Z,19.74
2018-05-09T21:42:37.820Z,19.68
2018-05-09T21:45:40.382Z,19.57
2018-05-09T21:48:42.839Z,19.55
2018-05-09T21:51:45.419Z,19.55
2018-05-09T21:54:47.899Z,19.63
2018-05-09T21:57:50.526Z,19.66
2018-05-09T22:00:53.094Z,19.69
2018-05-09T22:03:55.596Z,19.68
2018-05-09T22:06:58.095Z,19.69
2018-05-09T22:10:00.561Z,19.70
2018-05-09T22:13:03.051Z,19.57
2018-05-09T22:16:05.475Z,19.50
2018-05-09T22:19:07.964Z,19.37
2018-05-09T22:22:10.514Z,19.29
2018-05-09T22:25:13.086Z,19.10
2018-05-09T22:28:15.578Z,18.94
2018-05-09T22:31:18.092Z,18.87
2018-05-09T22:34:20.541Z,18.74
2018-05-09T22:37:23.107Z,18.66
2018-05-09T22:40:25.566Z,18.67
2018-05-09T22:43:28.034Z,18.70
2018-05-09T22:46:30.558Z,18.81
2018-05-09T22:49:33.077Z,18.87
2018-05-09T22:52:35.575Z,19.10
2018-05-09T22:55:38.015Z,18.91
2018-05-09T22:58:40.557Z,18.73
2018-05-09T23:01:43.130Z,18.56
2018-05-09T23:04:45.619Z,18.42
2018-05-09T23:07:48.092Z,18.29
2018-05-09T23:10:50.604Z,18.18
2018-05-09T23:13:53.269Z,18.10
2018-05-09T23:16:55.766Z,18.04
2018-05-09T23:19:58.234Z,18.00
2018-05-09T23:23:00.675Z,17.98
2018-05-09T23:26:03.137Z,18.03
2018-05-09T23:29:05.641Z,18.04
2018-05-09T23:32:08.176Z,18.13
2018-05-09T23:35:11.225Z,18.15
2018-05-09T23:38:13.695Z,18.29
2018-05-09T23:41:16.175Z,18.39
2018-05-09T23:44:18.689Z,18.41
2018-05-09T23:47:21.131Z,18.41
2018-05-09T23:50:23.644Z,18.39
2018-05-09T23:53:26.115Z,18.40
2018-05-09T23:56:28.577Z,18.27
2018-05-09T23:59:31.094Z,18.18
